KMJQ

Jackson Municipal Airport

Jackson, Minnesota, USA
METAR KMJQ 201955Z AUTO 35006KT 4SM -DZ BKN011 BKN015 OVC080 19/19 A2995 RMK AO2 P0002 LTG
Observed Flight Rules
Aug-20 @ 19:55 UTC (33 minutes ago) Marginal Visual Flight Rules
Wind Visibility Clouds Conditions
350° at 6 knots 4 miles
  • Broken at 1,100' AGL
  • Broken at 1,500' AGL
  • Overcast at 8,000' AGL
  • Light Drizzle
Temperatures Readings Precipitation
Current 19°C / 66°F
Dewpoint 19°C / 66°F
Humidity 100%
Altimeter 29.95" Hg
Pressure 1014 hPa
Elevation 441
Current Rain 0.02
METAR KMJQ 201955Z AUTO 35006KT 4SM -DZ BKN011 BKN015 OVC080 19/19 A2995 RMK AO2 P0002 LTG
Observed Flight Rules
Aug-20 @ 19:55 UTC
(33 minutes ago)
MVFR
Wind Visibility
350° at 6 knots 4 miles
Clouds
  • Broken at 1,100' AGL
  • Broken at 1,500' AGL
  • Overcast at 8,000' AGL
Conditions
  • Light Drizzle
Temperature Dewpoint
19°C / 66°F 19°C / 66°F
Humidity Altimeter Pressure
100% 29.95" Hg 1014 hPa
Current Rain
0.02